createdAt,value
2017-08-01T00:00:31.470Z,19.20
2017-08-01T00:02:58.899Z,19.20
2017-08-01T00:05:26.575Z,19.20
2017-08-01T00:07:53.977Z,19.20
2017-08-01T00:10:22.158Z,19.10
2017-08-01T00:12:50.345Z,19.00
2017-08-01T00:15:17.826Z,19.00
2017-08-01T00:17:45.233Z,19.10
2017-08-01T00:20:12.664Z,19.20
2017-08-01T00:22:40.070Z,19.30
2017-08-01T00:25:07.506Z,19.50
2017-08-01T00:27:34.910Z,19.60
2017-08-01T00:30:02.328Z,19.70
2017-08-01T00:32:30.505Z,19.90
2017-08-01T00:34:57.917Z,19.90
2017-08-01T00:37:25.329Z,20.00
2017-08-01T00:39:52.740Z,20.00
2017-08-01T00:42:21.059Z,20.00
2017-08-01T00:44:48.479Z,20.00
2017-08-01T00:47:15.901Z,20.00
2017-08-01T00:49:43.318Z,19.60
2017-08-01T00:52:10.747Z,19.20
2017-08-01T00:54:38.155Z,19.10
2017-08-01T00:57:05.565Z,19.00
2017-08-01T00:59:32.981Z,18.90
2017-08-01T01:02:00.397Z,19.00
2017-08-01T01:04:27.813Z,19.10
2017-08-01T01:06:55.261Z,19.30
2017-08-01T01:09:22.654Z,19.10
2017-08-01T01:11:50.845Z,18.30
2017-08-01T01:14:18.253Z,18.30
2017-08-01T01:16:46.317Z,18.00
2017-08-01T01:19:14.621Z,17.90
2017-08-01T01:21:42.045Z,17.80
2017-08-01T01:24:09.454Z,17.80
2017-08-01T01:26:37.640Z,17.90
2017-08-01T01:29:05.038Z,17.90
2017-08-01T01:31:32.461Z,17.90
2017-08-01T01:33:59.873Z,18.00
2017-08-01T01:36:27.294Z,17.90
2017-08-01T01:38:54.702Z,17.90
2017-08-01T01:41:22.882Z,18.00
2017-08-01T01:43:51.066Z,18.00
2017-08-01T01:46:18.473Z,17.90
2017-08-01T01:48:46.214Z,17.80
2017-08-01T01:51:13.610Z,17.40
2017-08-01T01:53:41.025Z,17.20
2017-08-01T01:56:08.442Z,17.10
2017-08-01T01:58:36.625Z,17.10
2017-08-01T02:01:04.037Z,17.10
2017-08-01T02:03:31.457Z,17.20
2017-08-01T02:05:59.793Z,17.10
2017-08-01T02:08:27.202Z,17.10
2017-08-01T02:10:54.621Z,17.10
2017-08-01T02:13:22.034Z,17.00
2017-08-01T02:15:49.460Z,17.00
2017-08-01T02:18:16.868Z,17.00
2017-08-01T02:20:45.046Z,17.10
2017-08-01T02:23:12.453Z,17.30
2017-08-01T02:25:39.882Z,17.30
2017-08-01T02:28:08.125Z,17.20
2017-08-01T02:30:35.541Z,17.10
2017-08-01T02:33:02.958Z,17.10
2017-08-01T02:35:31.137Z,17.20
2017-08-01T02:37:58.542Z,17.20
2017-08-01T02:40:25.977Z,17.20
2017-08-01T02:42:53.385Z,17.30
2017-08-01T02:45:20.806Z,17.40
2017-08-01T02:47:48.221Z,17.40
2017-08-01T02:50:15.633Z,17.40
2017-08-01T02:52:43.053Z,17.30
2017-08-01T02:55:10.467Z,17.10
2017-08-01T02:57:37.883Z,16.90
2017-08-01T03:00:05.285Z,16.80
2017-08-01T03:02:33.471Z,16.70
2017-08-01T03:05:01.642Z,16.70
2017-08-01T03:07:29.057Z,16.70
2017-08-01T03:09:56.469Z,16.80
2017-08-01T03:12:23.891Z,16.80
2017-08-01T03:14:51.301Z,16.90
2017-08-01T03:17:19.169Z,17.00
2017-08-01T03:19:46.566Z,17.10
2017-08-01T03:22:13.979Z,17.30
2017-08-01T03:24:41.393Z,17.40
2017-08-01T03:27:10.478Z,17.60
2017-08-01T03:29:37.897Z,17.60
2017-08-01T03:32:05.293Z,17.70
2017-08-01T03:34:33.523Z,17.80
2017-08-01T03:37:00.902Z,17.80
2017-08-01T03:39:29.101Z,17.90
2017-08-01T03:41:56.739Z,17.90
2017-08-01T03:44:24.146Z,17.90
2017-08-01T03:46:51.553Z,17.80
2017-08-01T03:49:20.206Z,17.80
2017-08-01T03:51:47.614Z,17.90
2017-08-01T03:54:16.591Z,18.00
2017-08-01T03:56:44.011Z,18.00
2017-08-01T03:59:11.425Z,18.00
2017-08-01T04:01:39.593Z,17.80
2017-08-01T04:04:07.009Z,17.80
2017-08-01T04:06:35.241Z,17.70
2017-08-01T04:09:02.653Z,17.30
2017-08-01T04:11:30.065Z,17.10
2017-08-01T04:13:57.465Z,17.00
2017-08-01T04:16:24.887Z,17.00
2017-08-01T04:18:52.294Z,17.10
2017-08-01T04:21:19.749Z,17.20
2017-08-01T04:23:47.265Z,17.30
2017-08-01T04:26:14.670Z,17.50
2017-08-01T04:28:42.992Z,17.30
2017-08-01T04:31:10.401Z,17.00
2017-08-01T04:33:37.803Z,16.90
2017-08-01T04:36:05.224Z,16.90
2017-08-01T04:38:34.213Z,16.90
2017-08-01T04:41:01.646Z,16.90
2017-08-01T04:43:29.050Z,16.80
2017-08-01T04:45:56.453Z,16.80
2017-08-01T04:48:23.985Z,16.80
2017-08-01T04:50:51.361Z,16.90
2017-08-01T04:53:18.785Z,17.00
2017-08-01T04:55:46.187Z,17.00
2017-08-01T04:58:13.602Z,17.20
2017-08-01T05:00:41.014Z,17.20
2017-08-01T05:03:08.437Z,17.30
2017-08-01T05:05:35.849Z,17.50
2017-08-01T05:08:03.262Z,17.50
2017-08-01T05:10:30.680Z,17.40
2017-08-01T05:12:58.081Z,17.50
2017-08-01T05:15:25.498Z,17.50
2017-08-01T05:17:52.938Z,17.50
2017-08-01T05:20:20.344Z,17.60
2017-08-01T05:22:47.749Z,17.80
2017-08-01T05:25:15.176Z,18.00
2017-08-01T05:27:42.573Z,18.20
2017-08-01T05:30:10.774Z,18.20
2017-08-01T05:32:38.173Z,18.50
2017-08-01T05:35:05.592Z,19.10
2017-08-01T05:37:32.997Z,19.70
2017-08-01T05:40:00.417Z,20.20
2017-08-01T05:42:27.831Z,20.60
2017-08-01T05:44:55.246Z,20.80
2017-08-01T05:47:23.421Z,20.90
2017-08-01T05:49:51.610Z,20.80
2017-08-01T05:52:19.021Z,20.80
2017-08-01T05:54:46.446Z,20.50
2017-08-01T05:57:13.851Z,20.30
2017-08-01T05:59:42.020Z,19.70
2017-08-01T06:02:10.209Z,19.70
2017-08-01T06:04:39.498Z,20.00
2017-08-01T06:07:06.923Z,20.00
2017-08-01T06:09:34.334Z,20.60
2017-08-01T06:12:01.765Z,21.20
2017-08-01T06:14:29.174Z,21.60
2017-08-01T06:16:56.831Z,21.80
2017-08-01T06:19:24.237Z,22.30
2017-08-01T06:21:52.418Z,22.10
2017-08-01T06:24:20.602Z,22.40
2017-08-01T06:26:48.785Z,22.60
2017-08-01T06:29:16.190Z,22.50
2017-08-01T06:31:43.609Z,22.50
2017-08-01T06:34:11.014Z,22.40
2017-08-01T06:36:38.437Z,22.40
2017-08-01T06:39:05.850Z,22.40
2017-08-01T06:41:34.038Z,23.00
2017-08-01T06:44:01.447Z,23.00
2017-08-01T06:46:28.858Z,23.10
2017-08-01T06:48:56.274Z,22.70
2017-08-01T06:51:23.682Z,22.50
2017-08-01T06:53:51.108Z,22.30
2017-08-01T06:56:19.297Z,21.90
2017-08-01T06:58:46.706Z,21.90
2017-08-01T07:01:14.123Z,21.80
2017-08-01T07:03:41.543Z,21.60
2017-08-01T07:06:09.708Z,21.80
2017-08-01T07:08:37.133Z,21.80
2017-08-01T07:11:04.550Z,22.00
2017-08-01T07:13:31.970Z,22.00
2017-08-01T07:15:59.386Z,22.10
2017-08-01T07:18:26.803Z,22.50
2017-08-01T07:20:55.687Z,22.70
2017-08-01T07:23:23.885Z,23.10
2017-08-01T07:25:51.293Z,23.10
2017-08-01T07:28:18.710Z,23.60
2017-08-01T07:30:46.127Z,24.10
2017-08-01T07:33:14.308Z,24.80
2017-08-01T07:35:42.497Z,25.00
2017-08-01T07:38:10.161Z,25.00
2017-08-01T07:40:37.570Z,25.40
2017-08-01T07:43:04.991Z,26.00
2017-08-01T07:45:32.407Z,25.90
2017-08-01T07:48:01.475Z,25.90
2017-08-01T07:50:28.899Z,25.90
2017-08-01T07:52:56.306Z,26.10
2017-08-01T07:55:24.481Z,25.60
2017-08-01T07:57:52.665Z,25.50
2017-08-01T08:00:20.854Z,25.30
2017-08-01T08:02:48.273Z,25.30
2017-08-01T08:05:16.484Z,24.60
2017-08-01T08:07:44.654Z,24.20
2017-08-01T08:10:12.067Z,24.20
2017-08-01T08:12:39.480Z,23.90
2017-08-01T08:15:06.893Z,23.80
2017-08-01T08:17:35.165Z,23.70
2017-08-01T08:20:02.580Z,23.30
2017-08-01T08:22:29.994Z,23.50
2017-08-01T08:24:58.530Z,23.70
2017-08-01T08:27:25.949Z,23.70
2017-08-01T08:29:53.361Z,23.80
2017-08-01T08:32:20.787Z,23.90
2017-08-01T08:34:48.194Z,24.10
2017-08-01T08:37:16.382Z,24.40
2017-08-01T08:39:44.561Z,24.60
2017-08-01T08:42:11.974Z,24.60
2017-08-01T08:44:39.626Z,24.50
2017-08-01T08:47:07.014Z,24.30
2017-08-01T08:49:35.280Z,23.70
2017-08-01T08:52:02.701Z,23.20
2017-08-01T08:54:30.793Z,22.80
2017-08-01T08:56:58.209Z,22.10
2017-08-01T08:59:25.625Z,21.50
2017-08-01T09:01:53.042Z,20.80
2017-08-01T09:04:20.468Z,20.40
2017-08-01T09:06:47.869Z,20.30
2017-08-01T09:09:15.287Z,20.40
2017-08-01T09:11:42.689Z,20.70
2017-08-01T09:14:10.131Z,20.90
2017-08-01T09:16:37.533Z,21.00
2017-08-01T09:19:05.716Z,21.00
2017-08-01T09:21:33.121Z,21.00
2017-08-01T09:24:00.525Z,21.20
2017-08-01T09:26:28.773Z,21.30
2017-08-01T09:28:56.960Z,21.20
2017-08-01T09:31:24.366Z,21.50
2017-08-01T09:33:51.774Z,21.80
2017-08-01T09:36:19.946Z,22.30
2017-08-01T09:38:48.118Z,22.20
2017-08-01T09:41:17.370Z,22.40
2017-08-01T09:43:44.770Z,22.40
2017-08-01T09:46:12.957Z,23.10
2017-08-01T09:48:41.126Z,23.20
2017-08-01T09:51:09.311Z,23.40
2017-08-01T09:53:37.490Z,23.70
2017-08-01T09:56:04.922Z,23.60
2017-08-01T09:58:33.918Z,24.10
2017-08-01T10:01:02.094Z,24.30
2017-08-01T10:03:29.510Z,24.30
2017-08-01T10:05:56.931Z,24.30
2017-08-01T10:08:24.342Z,24.40
2017-08-01T10:10:51.746Z,25.00
2017-08-01T10:13:19.157Z,26.10
2017-08-01T10:15:46.581Z,27.30
2017-08-01T10:18:14.774Z,28.30
2017-08-01T10:20:42.158Z,29.10
2017-08-01T10:23:10.956Z,29.90
2017-08-01T10:25:39.122Z,29.20
2017-08-01T10:28:06.533Z,29.20
2017-08-01T10:30:33.952Z,28.50
2017-08-01T10:33:01.374Z,27.10
2017-08-01T10:35:28.778Z,26.10
2017-08-01T10:37:56.574Z,25.20
2017-08-01T10:40:23.986Z,24.70
2017-08-01T10:42:51.402Z,24.60
2017-08-01T10:45:18.817Z,24.40
2017-08-01T10:47:47.205Z,24.00
2017-08-01T10:50:14.593Z,23.80
2017-08-01T10:52:42.005Z,23.70
2017-08-01T10:55:09.405Z,23.60
2017-08-01T10:57:36.809Z,23.40
2017-08-01T11:00:04.230Z,23.10
2017-08-01T11:02:32.406Z,22.90
2017-08-01T11:05:00.582Z,22.90
2017-08-01T11:07:27.998Z,22.80
2017-08-01T11:09:55.930Z,22.50
2017-08-01T11:12:23.342Z,22.50
2017-08-01T11:14:50.763Z,22.50
2017-08-01T11:17:18.169Z,22.80
2017-08-01T11:19:45.584Z,23.10
2017-08-01T11:22:13.003Z,23.50
2017-08-01T11:24:41.183Z,24.10
2017-08-01T11:27:09.365Z,24.10
2017-08-01T11:29:36.769Z,24.60
2017-08-01T11:32:04.194Z,24.80
2017-08-01T11:34:31.602Z,25.10
2017-08-01T11:36:59.785Z,26.40
2017-08-01T11:39:27.194Z,26.40
2017-08-01T11:41:54.608Z,27.00
2017-08-01T11:44:22.022Z,27.10
2017-08-01T11:46:49.444Z,27.30
2017-08-01T11:49:16.862Z,28.00
2017-08-01T11:51:45.568Z,28.00
2017-08-01T11:54:12.973Z,28.00
2017-08-01T11:56:40.385Z,27.90
2017-08-01T11:59:07.798Z,27.60
2017-08-01T12:01:35.218Z,27.60
2017-08-01T12:04:02.635Z,27.40
2017-08-01T12:06:30.058Z,26.90
2017-08-01T12:08:57.783Z,26.20
2017-08-01T12:11:25.197Z,25.60
2017-08-01T12:13:53.374Z,24.60
2017-08-01T12:16:22.359Z,24.40
2017-08-01T12:18:50.530Z,24.00
2017-08-01T12:21:18.729Z,23.70
2017-08-01T12:23:46.152Z,23.70
2017-08-01T12:26:13.546Z,23.80
2017-08-01T12:28:40.969Z,24.30
2017-08-01T12:31:09.294Z,25.10
2017-08-01T12:33:36.701Z,25.70
2017-08-01T12:36:05.574Z,26.30
2017-08-01T12:38:32.981Z,26.60
2017-08-01T12:41:00.398Z,27.00
2017-08-01T12:43:27.818Z,27.40
2017-08-01T12:45:55.217Z,27.80
2017-08-01T12:48:23.399Z,27.80
2017-08-01T12:50:51.572Z,27.50
2017-08-01T12:53:19.753Z,27.20
2017-08-01T12:55:47.938Z,27.20
2017-08-01T12:58:15.361Z,27.20
2017-08-01T13:00:43.677Z,27.20
2017-08-01T13:03:11.091Z,27.20
2017-08-01T13:05:38.505Z,27.00
2017-08-01T13:08:05.913Z,26.50
2017-08-01T13:10:34.094Z,25.20
2017-08-01T13:13:02.524Z,24.10
2017-08-01T13:15:30.606Z,24.10
2017-08-01T13:17:58.021Z,23.60
2017-08-01T13:20:25.434Z,23.20
2017-08-01T13:22:52.845Z,23.00
2017-08-01T13:25:20.261Z,22.60
2017-08-01T13:27:47.666Z,22.60
2017-08-01T13:30:15.081Z,22.40
2017-08-01T13:32:43.257Z,21.80
2017-08-01T13:35:10.678Z,21.70
2017-08-01T13:37:38.090Z,21.60
2017-08-01T13:40:05.501Z,21.60
2017-08-01T13:42:32.918Z,21.50
2017-08-01T13:45:00.362Z,21.20
2017-08-01T14:01:59.526Z,20.70
2017-08-01T14:04:27.853Z,20.70
2017-08-01T14:06:55.512Z,20.70
2017-08-01T14:09:22.917Z,20.70
2017-08-01T14:11:51.104Z,20.70
2017-08-01T14:14:19.277Z,20.70
2017-08-01T14:16:47.471Z,20.80
2017-08-01T14:19:14.881Z,20.80
2017-08-01T14:21:43.774Z,20.80
2017-08-01T14:24:11.192Z,20.90
2017-08-01T14:26:38.608Z,21.00
2017-08-01T14:29:06.790Z,20.60
2017-08-01T14:31:34.198Z,20.60
2017-08-01T14:34:01.619Z,20.50
2017-08-01T14:36:29.025Z,20.40
2017-08-01T14:38:56.441Z,20.30
2017-08-01T14:41:24.442Z,20.40
2017-08-01T14:43:51.862Z,20.50
2017-08-01T14:46:19.278Z,20.70
2017-08-01T14:48:47.461Z,21.00
2017-08-01T14:51:15.629Z,21.20
2017-08-01T14:53:43.813Z,21.50
2017-08-01T14:56:11.985Z,21.60
2017-08-01T14:58:40.169Z,21.80
2017-08-01T15:01:07.577Z,21.70
2017-08-01T15:03:35.009Z,22.00
2017-08-01T15:06:02.422Z,22.00
2017-08-01T15:08:30.586Z,22.30
2017-08-01T15:10:58.798Z,22.60
2017-08-01T15:13:26.941Z,22.80
2017-08-01T15:15:54.359Z,22.80
2017-08-01T15:18:21.776Z,22.90
2017-08-01T15:20:49.190Z,23.10
2017-08-01T15:23:16.602Z,23.20
2017-08-01T15:25:44.025Z,23.20
2017-08-01T15:28:12.192Z,23.60
2017-08-01T15:30:40.389Z,23.90
2017-08-01T15:33:08.561Z,24.30
2017-08-01T15:35:35.976Z,24.20
2017-08-01T15:38:03.381Z,24.40
2017-08-01T15:40:30.797Z,24.50
2017-08-01T15:42:58.207Z,24.60
2017-08-01T15:45:25.616Z,24.50
2017-08-01T15:47:53.793Z,24.30
2017-08-01T15:50:21.987Z,24.10
2017-08-01T15:52:49.393Z,24.10
2017-08-01T15:55:17.606Z,24.30
2017-08-01T15:57:45.774Z,24.60
2017-08-01T16:00:14.711Z,24.50
2017-08-01T16:02:42.757Z,24.50
2017-08-01T16:05:10.166Z,24.30
2017-08-01T16:07:37.574Z,24.20
2017-08-01T16:10:04.985Z,24.30
2017-08-01T16:12:32.404Z,24.30
2017-08-01T16:14:59.814Z,24.40
2017-08-01T16:17:27.226Z,24.40
2017-08-01T16:19:55.446Z,24.60
2017-08-01T16:22:26.262Z,24.70
2017-08-01T16:24:53.947Z,24.70
2017-08-01T16:27:21.355Z,24.60
2017-08-01T16:29:49.453Z,24.60
2017-08-01T16:32:16.877Z,24.60
2017-08-01T16:34:44.288Z,24.60
2017-08-01T16:37:12.863Z,24.60
2017-08-01T16:39:40.275Z,24.50
2017-08-01T16:42:07.673Z,23.80
2017-08-01T16:44:35.858Z,23.80
2017-08-01T16:47:04.417Z,24.10
2017-08-01T16:49:31.845Z,24.10
2017-08-01T16:51:59.261Z,24.20
2017-08-01T16:54:27.456Z,24.60
2017-08-01T16:56:54.857Z,24.60
2017-08-01T16:59:22.268Z,24.80
2017-08-01T17:01:49.682Z,25.00
2017-08-01T17:04:17.094Z,25.00
2017-08-01T17:06:45.097Z,25.10
2017-08-01T17:09:12.511Z,25.10
2017-08-01T17:11:39.924Z,25.30
2017-08-01T17:14:07.336Z,25.40
2017-08-01T17:16:35.917Z,25.30
2017-08-01T17:19:03.346Z,25.30
2017-08-01T17:21:30.761Z,25.20
2017-08-01T17:23:58.185Z,25.20
2017-08-01T17:26:25.601Z,25.20
2017-08-01T17:28:53.768Z,25.20
2017-08-01T17:31:21.962Z,25.30
2017-08-01T17:33:49.374Z,25.30
2017-08-01T17:36:16.801Z,25.40
2017-08-01T17:38:44.205Z,25.40
2017-08-01T17:41:12.389Z,25.20
2017-08-01T17:43:40.574Z,24.90
2017-08-01T17:46:07.990Z,24.90
2017-08-01T17:57:35.578Z,24.10
2017-08-01T18:00:02.998Z,24.10
2017-08-01T18:08:20.741Z,24.20
2017-08-01T18:10:48.155Z,24.20
2017-08-01T18:13:15.578Z,24.00
2017-08-01T18:15:43.745Z,23.80
2017-08-01T18:18:11.938Z,23.60
2017-08-01T18:20:40.270Z,23.60
2017-08-01T18:23:07.678Z,23.60
2017-08-01T18:25:35.085Z,23.50
2017-08-01T18:28:02.513Z,23.30
2017-08-01T18:30:29.918Z,23.30
2017-08-01T18:32:57.342Z,23.40
2017-08-01T18:35:24.742Z,23.40
2017-08-01T18:37:52.157Z,23.50
2017-08-01T18:40:19.561Z,23.40
2017-08-01T18:42:47.620Z,23.40
2017-08-01T18:45:15.788Z,23.40
2017-08-01T18:53:40.060Z,23.00
2017-08-01T18:56:07.470Z,22.70
2017-08-01T18:58:35.659Z,22.70
2017-08-01T19:01:03.062Z,22.70
2017-08-01T19:03:30.502Z,22.80
2017-08-01T19:05:57.932Z,22.70
2017-08-01T19:08:26.774Z,22.40
2017-08-01T19:10:54.191Z,22.40
2017-08-01T19:13:22.508Z,22.50
2017-08-01T19:15:49.927Z,22.60
2017-08-01T19:18:17.343Z,22.60
2017-08-01T19:20:45.527Z,22.40
2017-08-01T19:23:12.938Z,22.40
2017-08-01T19:25:40.358Z,22.20
2017-08-01T19:28:07.759Z,22.10
2017-08-01T19:30:35.170Z,21.90
2017-08-01T19:35:57.966Z,21.80
2017-08-01T19:38:25.365Z,21.70
2017-08-01T19:40:53.553Z,21.40
2017-08-01T19:43:20.961Z,21.40
2017-08-01T19:45:49.050Z,21.40
2017-08-01T19:48:16.460Z,21.50
2017-08-01T19:50:43.876Z,21.50
2017-08-01T19:53:12.057Z,21.50
2017-08-01T19:55:40.225Z,21.40
2017-08-01T19:58:08.409Z,21.60
2017-08-01T20:00:35.822Z,21.50
2017-08-01T20:03:03.245Z,21.60
2017-08-01T20:05:30.656Z,21.40
2017-08-01T20:07:58.066Z,21.20
2017-08-01T20:10:25.489Z,20.90
2017-08-01T20:12:52.907Z,20.60
2017-08-01T20:15:20.860Z,20.30
2017-08-01T20:17:48.286Z,20.10
2017-08-01T20:20:15.693Z,20.10
2017-08-01T20:22:43.102Z,20.20
2017-08-01T20:25:10.593Z,20.30
2017-08-01T20:27:37.997Z,20.30
2017-08-01T20:30:05.416Z,20.30
2017-08-01T20:32:32.825Z,20.40
2017-08-01T20:35:00.246Z,20.30
2017-08-01T20:37:28.434Z,20.20
2017-08-01T20:39:56.610Z,19.90
2017-08-01T20:42:24.013Z,19.80
2017-08-01T20:44:51.452Z,19.60
2017-08-01T20:47:18.858Z,19.40
2017-08-01T20:49:46.294Z,19.10
2017-08-01T20:52:13.701Z,19.00
2017-08-01T20:54:41.117Z,19.00
2017-08-01T20:57:08.531Z,19.00
2017-08-01T20:59:36.633Z,19.00
2017-08-01T21:02:04.050Z,19.10
2017-08-01T21:04:31.461Z,19.20
2017-08-01T21:06:58.879Z,19.30
2017-08-01T21:09:26.285Z,19.30
2017-08-01T21:11:54.475Z,19.40
2017-08-01T21:14:21.887Z,19.30
2017-08-01T21:16:49.319Z,19.40
2017-08-01T21:19:17.521Z,19.50
2017-08-01T21:21:44.938Z,19.40
2017-08-01T21:24:12.351Z,19.10
2017-08-01T21:26:41.322Z,18.90
2017-08-01T21:29:08.734Z,18.90
2017-08-01T21:31:36.159Z,18.90
2017-08-01T21:34:03.556Z,18.90
2017-08-01T21:36:30.982Z,18.80
2017-08-01T21:38:59.166Z,18.90
2017-08-01T21:41:26.586Z,18.90
2017-08-01T21:43:54.002Z,18.70
2017-08-01T21:46:21.417Z,18.50
2017-08-01T21:48:48.833Z,18.40
2017-08-01T21:51:16.252Z,18.40
2017-08-01T21:53:43.663Z,18.50
2017-08-01T21:56:11.074Z,18.40
2017-08-01T21:58:38.484Z,18.40
2017-08-01T22:01:05.898Z,18.50
2017-08-01T22:03:33.318Z,18.70
2017-08-01T22:06:01.877Z,18.80
2017-08-01T22:08:30.190Z,18.90
2017-08-01T22:10:57.602Z,18.90
2017-08-01T22:13:25.030Z,18.90
2017-08-01T22:15:52.437Z,18.90
2017-08-01T22:18:20.622Z,19.00
2017-08-01T22:20:48.035Z,19.00
2017-08-01T22:23:15.457Z,19.10
2017-08-01T22:25:42.861Z,19.20
2017-08-01T22:28:10.299Z,19.40
2017-08-01T22:30:37.710Z,19.50
2017-08-01T22:36:19.853Z,19.80
2017-08-01T22:38:47.269Z,19.70
2017-08-01T22:41:15.453Z,19.80
2017-08-01T22:43:42.877Z,19.80
2017-08-01T22:46:10.808Z,19.80
2017-08-01T22:48:38.777Z,19.70
2017-08-01T22:51:06.178Z,19.70
2017-08-01T22:53:33.594Z,19.70
2017-08-01T22:56:01.011Z,19.60
2017-08-01T22:58:29.197Z,19.50
2017-08-01T23:00:56.610Z,19.50
2017-08-01T23:03:24.010Z,19.40
2017-08-01T23:05:51.417Z,19.30
2017-08-01T23:08:18.841Z,19.30
2017-08-01T23:10:46.258Z,19.10
2017-08-01T23:13:14.441Z,19.00
2017-08-01T23:15:42.651Z,19.00
2017-08-01T23:18:10.061Z,19.00
2017-08-01T23:20:37.465Z,18.90
2017-08-01T23:23:04.889Z,18.90
2017-08-01T23:25:33.088Z,18.80
2017-08-01T23:28:00.510Z,18.80
2017-08-01T23:30:28.677Z,18.60
2017-08-01T23:36:05.494Z,18.60
2017-08-01T23:38:32.910Z,18.60
2017-08-01T23:41:00.330Z,18.70
2017-08-01T23:43:27.742Z,18.70
2017-08-01T23:45:55.909Z,18.90
2017-08-01T23:48:24.094Z,18.80
2017-08-01T23:50:52.266Z,18.80
2017-08-01T23:53:20.458Z,18.80
2017-08-01T23:55:47.870Z,18.80
2017-08-01T23:58:24.248Z,18.80
